sensor_id;sensor_type;location;lat;lon;timestamp;P1;durP1;ratioP1;P2;durP2;ratioP2
44452;SDS011;30155;52.164;21.236;2024-03-02T00:02:21;35.00;;;25.00;;
44452;SDS011;30155;52.164;21.236;2024-03-02T00:07:13;37.90;;;23.50;;
44452;SDS011;30155;52.164;21.236;2024-03-02T00:12:05;41.60;;;28.40;;
44452;SDS011;30155;52.164;21.236;2024-03-02T00:16:57;35.70;;;23.40;;
44452;SDS011;30155;52.164;21.236;2024-03-02T00:21:50;41.60;;;26.90;;
44452;SDS011;30155;52.164;21.236;2024-03-02T00:26:44;38.80;;;24.90;;
44452;SDS011;30155;52.164;21.236;2024-03-02T00:31:36;41.00;;;26.50;;
44452;SDS011;30155;52.164;21.236;2024-03-02T00:36:27;41.10;;;27.10;;
44452;SDS011;30155;52.164;21.236;2024-03-02T00:41:27;39.90;;;26.40;;
44452;SDS011;30155;52.164;21.236;2024-03-02T00:46:20;36.30;;;25.30;;
44452;SDS011;30155;52.164;21.236;2024-03-02T00:51:14;34.10;;;24.40;;
44452;SDS011;30155;52.164;21.236;2024-03-02T00:56:08;38.80;;;25.80;;
44452;SDS011;30155;52.164;21.236;2024-03-02T01:01:01;34.10;;;24.80;;
44452;SDS011;30155;52.164;21.236;2024-03-02T01:05:53;37.70;;;24.80;;
44452;SDS011;30155;52.164;21.236;2024-03-02T01:10:44;34.20;;;23.90;;
44452;SDS011;30155;52.164;21.236;2024-03-02T01:15:36;32.10;;;23.20;;
44452;SDS011;30155;52.164;21.236;2024-03-02T01:20:27;34.00;;;24.90;;
44452;SDS011;30155;52.164;21.236;2024-03-02T01:25:19;35.70;;;25.40;;
44452;SDS011;30155;52.164;21.236;2024-03-02T01:30:11;33.60;;;24.70;;
44452;SDS011;30155;52.164;21.236;2024-03-02T01:35:02;35.30;;;25.10;;
44452;SDS011;30155;52.164;21.236;2024-03-02T01:39:54;32.10;;;23.00;;
44452;SDS011;30155;52.164;21.236;2024-03-02T01:44:45;34.00;;;23.80;;
44452;SDS011;30155;52.164;21.236;2024-03-02T01:49:37;33.40;;;23.80;;
44452;SDS011;30155;52.164;21.236;2024-03-02T01:54:29;31.50;;;23.00;;
44452;SDS011;30155;52.164;21.236;2024-03-02T01:59:21;32.50;;;23.20;;
44452;SDS011;30155;52.164;21.236;2024-03-02T02:04:13;31.50;;;21.60;;
44452;SDS011;30155;52.164;21.236;2024-03-02T02:09:05;28.60;;;21.30;;
44452;SDS011;30155;52.164;21.236;2024-03-02T02:13:58;34.00;;;23.20;;
44452;SDS011;30155;52.164;21.236;2024-03-02T02:18:50;29.70;;;21.50;;
44452;SDS011;30155;52.164;21.236;2024-03-02T02:23:41;32.10;;;21.70;;
44452;SDS011;30155;52.164;21.236;2024-03-02T02:28:37;35.60;;;23.70;;
44452;SDS011;30155;52.164;21.236;2024-03-02T02:33:28;30.60;;;21.90;;
44452;SDS011;30155;52.164;21.236;2024-03-02T02:38:20;30.40;;;21.00;;
44452;SDS011;30155;52.164;21.236;2024-03-02T02:43:11;32.30;;;22.00;;
44452;SDS011;30155;52.164;21.236;2024-03-02T02:48:03;31.20;;;21.80;;
44452;SDS011;30155;52.164;21.236;2024-03-02T02:52:56;27.30;;;19.40;;
44452;SDS011;30155;52.164;21.236;2024-03-02T02:57:48;39.70;;;23.40;;
44452;SDS011;30155;52.164;21.236;2024-03-02T03:02:40;29.20;;;21.50;;
44452;SDS011;30155;52.164;21.236;2024-03-02T03:07:32;31.70;;;22.20;;
44452;SDS011;30155;52.164;21.236;2024-03-02T03:12:24;31.80;;;21.00;;
44452;SDS011;30155;52.164;21.236;2024-03-02T03:17:16;32.30;;;23.10;;
44452;SDS011;30155;52.164;21.236;2024-03-02T03:22:08;30.30;;;21.70;;
44452;SDS011;30155;52.164;21.236;2024-03-02T03:27:00;32.20;;;20.70;;
44452;SDS011;30155;52.164;21.236;2024-03-02T03:31:51;31.80;;;21.30;;
44452;SDS011;30155;52.164;21.236;2024-03-02T03:36:43;31.90;;;21.00;;
44452;SDS011;30155;52.164;21.236;2024-03-02T03:41:34;35.60;;;23.60;;
44452;SDS011;30155;52.164;21.236;2024-03-02T03:46:26;34.00;;;22.10;;
44452;SDS011;30155;52.164;21.236;2024-03-02T03:51:18;33.00;;;21.50;;
44452;SDS011;30155;52.164;21.236;2024-03-02T03:56:09;27.80;;;20.20;;
44452;SDS011;30155;52.164;21.236;2024-03-02T04:01:00;36.20;;;24.10;;
44452;SDS011;30155;52.164;21.236;2024-03-02T04:05:52;36.60;;;23.10;;
44452;SDS011;30155;52.164;21.236;2024-03-02T04:10:43;36.40;;;23.70;;
44452;SDS011;30155;52.164;21.236;2024-03-02T04:15:35;36.10;;;22.80;;
44452;SDS011;30155;52.164;21.236;2024-03-02T04:20:26;36.20;;;23.20;;
44452;SDS011;30155;52.164;21.236;2024-03-02T04:25:18;35.10;;;23.00;;
44452;SDS011;30155;52.164;21.236;2024-03-02T04:30:10;36.20;;;24.00;;
44452;SDS011;30155;52.164;21.236;2024-03-02T04:35:02;41.60;;;23.80;;
44452;SDS011;30155;52.164;21.236;2024-03-02T04:39:54;34.50;;;22.60;;
44452;SDS011;30155;52.164;21.236;2024-03-02T04:44:46;36.80;;;24.30;;
44452;SDS011;30155;52.164;21.236;2024-03-02T04:49:37;32.80;;;22.20;;
44452;SDS011;30155;52.164;21.236;2024-03-02T04:54:29;33.20;;;22.10;;
44452;SDS011;30155;52.164;21.236;2024-03-02T04:59:20;36.10;;;23.80;;
44452;SDS011;30155;52.164;21.236;2024-03-02T05:04:12;39.30;;;24.70;;
44452;SDS011;30155;52.164;21.236;2024-03-02T05:09:03;40.70;;;24.60;;
44452;SDS011;30155;52.164;21.236;2024-03-02T05:13:54;37.40;;;24.10;;
44452;SDS011;30155;52.164;21.236;2024-03-02T05:18:46;36.60;;;24.80;;
44452;SDS011;30155;52.164;21.236;2024-03-02T05:23:38;37.60;;;24.00;;
44452;SDS011;30155;52.164;21.236;2024-03-02T05:28:30;38.60;;;23.40;;
44452;SDS011;30155;52.164;21.236;2024-03-02T05:33:21;41.80;;;24.50;;
44452;SDS011;30155;52.164;21.236;2024-03-02T05:38:13;32.10;;;20.90;;
44452;SDS011;30155;52.164;21.236;2024-03-02T05:43:05;31.00;;;21.30;;
44452;SDS011;30155;52.164;21.236;2024-03-02T05:47:56;32.80;;;22.30;;
44452;SDS011;30155;52.164;21.236;2024-03-02T05:52:48;40.30;;;23.00;;
44452;SDS011;30155;52.164;21.236;2024-03-02T05:57:39;36.20;;;22.90;;
44452;SDS011;30155;52.164;21.236;2024-03-02T06:02:44;33.80;;;22.30;;
44452;SDS011;30155;52.164;21.236;2024-03-02T06:07:36;34.30;;;22.30;;
44452;SDS011;30155;52.164;21.236;2024-03-02T06:12:27;33.40;;;21.00;;
44452;SDS011;30155;52.164;21.236;2024-03-02T06:17:19;39.50;;;23.10;;
44452;SDS011;30155;52.164;21.236;2024-03-02T06:22:10;29.00;;;19.70;;
44452;SDS011;30155;52.164;21.236;2024-03-02T06:27:02;33.30;;;20.80;;
44452;SDS011;30155;52.164;21.236;2024-03-02T06:31:53;38.80;;;24.00;;
44452;SDS011;30155;52.164;21.236;2024-03-02T06:36:45;31.80;;;21.50;;
44452;SDS011;30155;52.164;21.236;2024-03-02T06:41:37;33.30;;;22.10;;
44452;SDS011;30155;52.164;21.236;2024-03-02T06:46:28;31.90;;;20.70;;
44452;SDS011;30155;52.164;21.236;2024-03-02T06:51:20;31.30;;;20.10;;
44452;SDS011;30155;52.164;21.236;2024-03-02T06:56:12;34.70;;;21.70;;
44452;SDS011;30155;52.164;21.236;2024-03-02T07:01:03;32.90;;;20.20;;
44452;SDS011;30155;52.164;21.236;2024-03-02T07:05:55;30.70;;;20.90;;
44452;SDS011;30155;52.164;21.236;2024-03-02T07:10:47;30.00;;;19.00;;
44452;SDS011;30155;52.164;21.236;2024-03-02T07:15:40;31.80;;;21.10;;
44452;SDS011;30155;52.164;21.236;2024-03-02T07:20:57;30.80;;;19.20;;
44452;SDS011;30155;52.164;21.236;2024-03-02T07:26:05;28.30;;;19.60;;
44452;SDS011;30155;52.164;21.236;2024-03-02T07:31:01;31.10;;;20.90;;
44452;SDS011;30155;52.164;21.236;2024-03-02T07:35:55;29.10;;;18.60;;
44452;SDS011;30155;52.164;21.236;2024-03-02T07:40:47;32.70;;;20.30;;
44452;SDS011;30155;52.164;21.236;2024-03-02T07:45:41;31.40;;;20.70;;
44452;SDS011;30155;52.164;21.236;2024-03-02T07:50:32;31.90;;;20.30;;
44452;SDS011;30155;52.164;21.236;2024-03-02T07:55:25;30.10;;;19.40;;
44452;SDS011;30155;52.164;21.236;2024-03-02T08:00:18;32.50;;;19.60;;
44452;SDS011;30155;52.164;21.236;2024-03-02T08:05:09;31.50;;;19.50;;
44452;SDS011;30155;52.164;21.236;2024-03-02T08:10:01;30.90;;;18.10;;
44452;SDS011;30155;52.164;21.236;2024-03-02T08:14:52;30.80;;;19.50;;
44452;SDS011;30155;52.164;21.236;2024-03-02T08:19:44;30.90;;;19.10;;
44452;SDS011;30155;52.164;21.236;2024-03-02T08:24:35;33.10;;;21.30;;
44452;SDS011;30155;52.164;21.236;2024-03-02T08:29:27;31.80;;;19.90;;
44452;SDS011;30155;52.164;21.236;2024-03-02T08:34:19;28.20;;;18.70;;
44452;SDS011;30155;52.164;21.236;2024-03-02T08:39:10;33.00;;;20.00;;
44452;SDS011;30155;52.164;21.236;2024-03-02T08:44:05;34.60;;;21.00;;
44452;SDS011;30155;52.164;21.236;2024-03-02T08:48:57;32.20;;;20.10;;
44452;SDS011;30155;52.164;21.236;2024-03-02T08:53:49;31.70;;;19.30;;
44452;SDS011;30155;52.164;21.236;2024-03-02T08:58:40;35.00;;;21.30;;
44452;SDS011;30155;52.164;21.236;2024-03-02T09:03:31;31.30;;;19.60;;
44452;SDS011;30155;52.164;21.236;2024-03-02T09:08:25;29.40;;;19.50;;
44452;SDS011;30155;52.164;21.236;2024-03-02T09:13:16;29.30;;;20.50;;
44452;SDS011;30155;52.164;21.236;2024-03-02T09:18:08;31.50;;;19.70;;
44452;SDS011;30155;52.164;21.236;2024-03-02T09:22:59;30.50;;;20.60;;
44452;SDS011;30155;52.164;21.236;2024-03-02T09:27:51;28.80;;;20.30;;
44452;SDS011;30155;52.164;21.236;2024-03-02T09:32:44;33.20;;;21.50;;
44452;SDS011;30155;52.164;21.236;2024-03-02T09:37:39;35.40;;;21.90;;
44452;SDS011;30155;52.164;21.236;2024-03-02T09:42:31;31.90;;;22.30;;
44452;SDS011;30155;52.164;21.236;2024-03-02T09:47:23;29.00;;;20.90;;
44452;SDS011;30155;52.164;21.236;2024-03-02T09:52:15;34.40;;;23.20;;
44452;SDS011;30155;52.164;21.236;2024-03-02T09:57:07;30.70;;;21.00;;
44452;SDS011;30155;52.164;21.236;2024-03-02T10:01:59;36.80;;;22.40;;
44452;SDS011;30155;52.164;21.236;2024-03-02T10:07:09;28.70;;;20.60;;
44452;SDS011;30155;52.164;21.236;2024-03-02T10:12:08;28.40;;;21.00;;
44452;SDS011;30155;52.164;21.236;2024-03-02T10:17:05;32.80;;;21.90;;
44452;SDS011;30155;52.164;21.236;2024-03-02T10:21:59;32.10;;;22.00;;
44452;SDS011;30155;52.164;21.236;2024-03-02T10:26:55;36.40;;;23.10;;
44452;SDS011;30155;52.164;21.236;2024-03-02T10:31:47;30.20;;;22.10;;
44452;SDS011;30155;52.164;21.236;2024-03-02T10:36:42;31.30;;;23.80;;
44452;SDS011;30155;52.164;21.236;2024-03-02T10:41:35;37.70;;;26.70;;
44452;SDS011;30155;52.164;21.236;2024-03-02T10:46:28;39.80;;;27.60;;
44452;SDS011;30155;52.164;21.236;2024-03-02T10:51:21;42.30;;;29.20;;
44452;SDS011;30155;52.164;21.236;2024-03-02T10:56:13;41.90;;;29.20;;
44452;SDS011;30155;52.164;21.236;2024-03-02T11:01:13;44.90;;;32.60;;
44452;SDS011;30155;52.164;21.236;2024-03-02T11:06:07;45.70;;;31.60;;
44452;SDS011;30155;52.164;21.236;2024-03-02T11:11:03;48.00;;;31.40;;
44452;SDS011;30155;52.164;21.236;2024-03-02T11:16:08;40.80;;;30.60;;
44452;SDS011;30155;52.164;21.236;2024-03-02T11:21:03;39.20;;;31.10;;
44452;SDS011;30155;52.164;21.236;2024-03-02T11:26:04;44.60;;;30.70;;
44452;SDS011;30155;52.164;21.236;2024-03-02T11:31:08;35.70;;;29.30;;
44452;SDS011;30155;52.164;21.236;2024-03-02T11:36:00;37.90;;;29.50;;
44452;SDS011;30155;52.164;21.236;2024-03-02T11:40:51;38.40;;;29.60;;
44452;SDS011;30155;52.164;21.236;2024-03-02T11:45:43;37.70;;;29.00;;
44452;SDS011;30155;52.164;21.236;2024-03-02T11:50:39;42.20;;;29.30;;
44452;SDS011;30155;52.164;21.236;2024-03-02T11:55:38;39.90;;;27.70;;
44452;SDS011;30155;52.164;21.236;2024-03-02T12:00:31;33.30;;;26.70;;
44452;SDS011;30155;52.164;21.236;2024-03-02T12:05:22;39.90;;;28.10;;
44452;SDS011;30155;52.164;21.236;2024-03-02T12:10:14;38.50;;;28.90;;
44452;SDS011;30155;52.164;21.236;2024-03-02T12:15:06;35.90;;;28.50;;
44452;SDS011;30155;52.164;21.236;2024-03-02T12:19:58;37.50;;;28.70;;
44452;SDS011;30155;52.164;21.236;2024-03-02T12:24:49;34.50;;;28.40;;
44452;SDS011;30155;52.164;21.236;2024-03-02T12:29:41;34.10;;;27.00;;
44452;SDS011;30155;52.164;21.236;2024-03-02T12:34:32;36.10;;;26.60;;
44452;SDS011;30155;52.164;21.236;2024-03-02T12:39:24;36.20;;;27.80;;
44452;SDS011;30155;52.164;21.236;2024-03-02T12:44:16;42.10;;;29.50;;
44452;SDS011;30155;52.164;21.236;2024-03-02T12:49:09;39.60;;;30.90;;
44452;SDS011;30155;52.164;21.236;2024-03-02T12:54:10;33.90;;;26.40;;
44452;SDS011;30155;52.164;21.236;2024-03-02T12:59:02;36.10;;;28.00;;
44452;SDS011;30155;52.164;21.236;2024-03-02T13:03:53;37.80;;;29.00;;
44452;SDS011;30155;52.164;21.236;2024-03-02T13:08:46;37.50;;;30.20;;
44452;SDS011;30155;52.164;21.236;2024-03-02T13:13:38;40.20;;;29.30;;
44452;SDS011;30155;52.164;21.236;2024-03-02T13:18:31;38.50;;;28.20;;
44452;SDS011;30155;52.164;21.236;2024-03-02T13:23:25;42.40;;;30.20;;
44452;SDS011;30155;52.164;21.236;2024-03-02T13:28:16;39.60;;;28.50;;
44452;SDS011;30155;52.164;21.236;2024-03-02T13:33:08;38.10;;;28.10;;
44452;SDS011;30155;52.164;21.236;2024-03-02T13:38:00;38.40;;;29.30;;
44452;SDS011;30155;52.164;21.236;2024-03-02T13:42:53;37.20;;;27.90;;
44452;SDS011;30155;52.164;21.236;2024-03-02T13:47:45;35.20;;;26.50;;
44452;SDS011;30155;52.164;21.236;2024-03-02T13:52:36;35.30;;;26.90;;
44452;SDS011;30155;52.164;21.236;2024-03-02T13:57:28;35.30;;;26.40;;
44452;SDS011;30155;52.164;21.236;2024-03-02T14:02:21;39.50;;;29.20;;
44452;SDS011;30155;52.164;21.236;2024-03-02T14:07:12;36.90;;;28.00;;
44452;SDS011;30155;52.164;21.236;2024-03-02T14:12:04;44.30;;;29.40;;
44452;SDS011;30155;52.164;21.236;2024-03-02T14:16:57;39.40;;;26.70;;
44452;SDS011;30155;52.164;21.236;2024-03-02T14:21:51;37.30;;;28.60;;
44452;SDS011;30155;52.164;21.236;2024-03-02T14:26:42;39.00;;;27.20;;
44452;SDS011;30155;52.164;21.236;2024-03-02T14:31:34;36.10;;;26.70;;
44452;SDS011;30155;52.164;21.236;2024-03-02T14:36:26;37.40;;;28.10;;
44452;SDS011;30155;52.164;21.236;2024-03-02T14:41:18;37.70;;;27.50;;
44452;SDS011;30155;52.164;21.236;2024-03-02T14:46:10;37.90;;;26.40;;
44452;SDS011;30155;52.164;21.236;2024-03-02T14:51:03;34.70;;;27.30;;
44452;SDS011;30155;52.164;21.236;2024-03-02T14:55:56;41.20;;;29.90;;
44452;SDS011;30155;52.164;21.236;2024-03-02T15:00:48;38.90;;;28.40;;
44452;SDS011;30155;52.164;21.236;2024-03-02T15:05:40;42.20;;;30.20;;
44452;SDS011;30155;52.164;21.236;2024-03-02T15:10:31;38.20;;;27.40;;
44452;SDS011;30155;52.164;21.236;2024-03-02T15:15:23;41.00;;;30.30;;
44452;SDS011;30155;52.164;21.236;2024-03-02T15:20:15;44.80;;;31.20;;
44452;SDS011;30155;52.164;21.236;2024-03-02T15:25:06;41.40;;;29.30;;
44452;SDS011;30155;52.164;21.236;2024-03-02T15:29:58;44.10;;;32.60;;
44452;SDS011;30155;52.164;21.236;2024-03-02T15:34:50;43.10;;;31.20;;
44452;SDS011;30155;52.164;21.236;2024-03-02T15:39:42;40.40;;;30.40;;
44452;SDS011;30155;52.164;21.236;2024-03-02T15:44:34;38.20;;;28.30;;
44452;SDS011;30155;52.164;21.236;2024-03-02T15:49:26;39.90;;;29.50;;
44452;SDS011;30155;52.164;21.236;2024-03-02T15:54:18;40.00;;;30.10;;
44452;SDS011;30155;52.164;21.236;2024-03-02T15:59:11;39.60;;;30.80;;
44452;SDS011;30155;52.164;21.236;2024-03-02T16:04:02;44.40;;;29.60;;
44452;SDS011;30155;52.164;21.236;2024-03-02T16:08:54;45.70;;;31.20;;
44452;SDS011;30155;52.164;21.236;2024-03-02T16:13:47;42.40;;;30.10;;
44452;SDS011;30155;52.164;21.236;2024-03-02T16:18:39;41.60;;;30.30;;
44452;SDS011;30155;52.164;21.236;2024-03-02T16:23:31;45.00;;;29.80;;
44452;SDS011;30155;52.164;21.236;2024-03-02T16:28:22;40.30;;;28.90;;
44452;SDS011;30155;52.164;21.236;2024-03-02T16:33:14;42.50;;;29.70;;
44452;SDS011;30155;52.164;21.236;2024-03-02T16:38:06;41.00;;;28.70;;
44452;SDS011;30155;52.164;21.236;2024-03-02T16:42:57;41.40;;;27.60;;
44452;SDS011;30155;52.164;21.236;2024-03-02T16:47:49;37.40;;;25.40;;
44452;SDS011;30155;52.164;21.236;2024-03-02T16:52:40;36.70;;;26.10;;
44452;SDS011;30155;52.164;21.236;2024-03-02T16:57:32;39.50;;;27.20;;
44452;SDS011;30155;52.164;21.236;2024-03-02T17:02:23;32.70;;;24.10;;
44452;SDS011;30155;52.164;21.236;2024-03-02T17:07:16;36.80;;;24.50;;
44452;SDS011;30155;52.164;21.236;2024-03-02T17:12:08;40.00;;;24.40;;
44452;SDS011;30155;52.164;21.236;2024-03-02T17:16:59;41.80;;;24.90;;
44452;SDS011;30155;52.164;21.236;2024-03-02T17:21:51;35.80;;;25.10;;
44452;SDS011;30155;52.164;21.236;2024-03-02T17:26:43;32.30;;;23.70;;
44452;SDS011;30155;52.164;21.236;2024-03-02T17:31:34;33.40;;;25.70;;
44452;SDS011;30155;52.164;21.236;2024-03-02T17:36:26;36.90;;;25.00;;
44452;SDS011;30155;52.164;21.236;2024-03-02T17:41:17;39.30;;;25.40;;
44452;SDS011;30155;52.164;21.236;2024-03-02T17:46:09;34.70;;;25.80;;
44452;SDS011;30155;52.164;21.236;2024-03-02T17:51:00;34.20;;;24.30;;
44452;SDS011;30155;52.164;21.236;2024-03-02T17:55:52;39.10;;;25.80;;
44452;SDS011;30155;52.164;21.236;2024-03-02T18:00:43;33.70;;;23.00;;
44452;SDS011;30155;52.164;21.236;2024-03-02T18:11:16;32.40;;;21.70;;
44452;SDS011;30155;52.164;21.236;2024-03-02T18:16:11;38.40;;;23.30;;
44452;SDS011;30155;52.164;21.236;2024-03-02T18:21:05;30.70;;;21.20;;
44452;SDS011;30155;52.164;21.236;2024-03-02T18:25:56;35.40;;;23.30;;
44452;SDS011;30155;52.164;21.236;2024-03-02T18:30:48;31.10;;;22.00;;
44452;SDS011;30155;52.164;21.236;2024-03-02T18:35:40;30.70;;;21.50;;
44452;SDS011;30155;52.164;21.236;2024-03-02T18:40:31;30.40;;;21.70;;
44452;SDS011;30155;52.164;21.236;2024-03-02T18:45:25;31.50;;;21.00;;
44452;SDS011;30155;52.164;21.236;2024-03-02T18:50:17;26.60;;;19.60;;
44452;SDS011;30155;52.164;21.236;2024-03-02T18:55:12;28.50;;;20.50;;
44452;SDS011;30155;52.164;21.236;2024-03-02T19:00:05;30.60;;;21.00;;
44452;SDS011;30155;52.164;21.236;2024-03-02T19:05:04;29.10;;;21.00;;
44452;SDS011;30155;52.164;21.236;2024-03-02T19:09:56;28.40;;;21.40;;
44452;SDS011;30155;52.164;21.236;2024-03-02T19:14:48;30.10;;;21.50;;
44452;SDS011;30155;52.164;21.236;2024-03-02T19:19:40;29.50;;;20.80;;
44452;SDS011;30155;52.164;21.236;2024-03-02T19:24:35;28.80;;;19.80;;
44452;SDS011;30155;52.164;21.236;2024-03-02T19:29:29;28.50;;;19.10;;
44452;SDS011;30155;52.164;21.236;2024-03-02T19:34:22;29.80;;;20.70;;
44452;SDS011;30155;52.164;21.236;2024-03-02T19:39:14;30.20;;;20.70;;
44452;SDS011;30155;52.164;21.236;2024-03-02T19:44:08;33.90;;;21.70;;
44452;SDS011;30155;52.164;21.236;2024-03-02T19:48:59;27.10;;;18.50;;
44452;SDS011;30155;52.164;21.236;2024-03-02T19:53:52;27.60;;;20.10;;
44452;SDS011;30155;52.164;21.236;2024-03-02T19:58:43;27.30;;;20.40;;
44452;SDS011;30155;52.164;21.236;2024-03-02T20:03:35;28.00;;;19.50;;
44452;SDS011;30155;52.164;21.236;2024-03-02T20:08:26;27.30;;;18.70;;
44452;SDS011;30155;52.164;21.236;2024-03-02T20:13:18;29.80;;;19.80;;
44452;SDS011;30155;52.164;21.236;2024-03-02T20:18:09;27.10;;;18.90;;
44452;SDS011;30155;52.164;21.236;2024-03-02T20:23:01;21.10;;;17.00;;
44452;SDS011;30155;52.164;21.236;2024-03-02T20:27:53;29.90;;;19.60;;
44452;SDS011;30155;52.164;21.236;2024-03-02T20:32:45;31.70;;;19.30;;
44452;SDS011;30155;52.164;21.236;2024-03-02T20:37:37;34.80;;;20.40;;
44452;SDS011;30155;52.164;21.236;2024-03-02T20:42:28;32.80;;;22.10;;
44452;SDS011;30155;52.164;21.236;2024-03-02T20:47:20;27.20;;;18.60;;
44452;SDS011;30155;52.164;21.236;2024-03-02T20:52:13;27.70;;;19.40;;
44452;SDS011;30155;52.164;21.236;2024-03-02T20:57:04;28.30;;;19.50;;
44452;SDS011;30155;52.164;21.236;2024-03-02T21:01:57;26.80;;;19.00;;
44452;SDS011;30155;52.164;21.236;2024-03-02T21:06:49;26.50;;;18.90;;
44452;SDS011;30155;52.164;21.236;2024-03-02T21:11:40;26.30;;;19.30;;
44452;SDS011;30155;52.164;21.236;2024-03-02T21:16:35;29.50;;;19.20;;
44452;SDS011;30155;52.164;21.236;2024-03-02T21:21:26;28.50;;;19.00;;
44452;SDS011;30155;52.164;21.236;2024-03-02T21:26:18;27.80;;;19.90;;
44452;SDS011;30155;52.164;21.236;2024-03-02T21:31:16;29.70;;;20.70;;
44452;SDS011;30155;52.164;21.236;2024-03-02T21:36:08;26.80;;;18.80;;
44452;SDS011;30155;52.164;21.236;2024-03-02T21:40:59;26.60;;;19.70;;
44452;SDS011;30155;52.164;21.236;2024-03-02T21:45:52;24.50;;;17.80;;
44452;SDS011;30155;52.164;21.236;2024-03-02T21:50:43;33.50;;;22.10;;
44452;SDS011;30155;52.164;21.236;2024-03-02T21:55:34;30.30;;;20.50;;
44452;SDS011;30155;52.164;21.236;2024-03-02T22:00:26;27.60;;;18.80;;
44452;SDS011;30155;52.164;21.236;2024-03-02T22:05:17;26.40;;;19.40;;
44452;SDS011;30155;52.164;21.236;2024-03-02T22:10:09;25.30;;;18.60;;
44452;SDS011;30155;52.164;21.236;2024-03-02T22:15:00;23.70;;;17.70;;
44452;SDS011;30155;52.164;21.236;2024-03-02T22:19:52;23.20;;;17.30;;
44452;SDS011;30155;52.164;21.236;2024-03-02T22:24:44;27.10;;;18.50;;
44452;SDS011;30155;52.164;21.236;2024-03-02T22:29:35;26.10;;;17.50;;
44452;SDS011;30155;52.164;21.236;2024-03-02T22:34:27;25.00;;;17.50;;
44452;SDS011;30155;52.164;21.236;2024-03-02T22:39:18;21.60;;;16.70;;
44452;SDS011;30155;52.164;21.236;2024-03-02T22:44:10;25.40;;;18.40;;
44452;SDS011;30155;52.164;21.236;2024-03-02T22:49:01;25.40;;;17.90;;
44452;SDS011;30155;52.164;21.236;2024-03-02T22:53:53;26.20;;;15.70;;
44452;SDS011;30155;52.164;21.236;2024-03-02T22:58:44;24.50;;;15.10;;
44452;SDS011;30155;52.164;21.236;2024-03-02T23:03:36;20.50;;;15.90;;
44452;SDS011;30155;52.164;21.236;2024-03-02T23:08:28;23.50;;;16.40;;
44452;SDS011;30155;52.164;21.236;2024-03-02T23:13:20;21.70;;;16.10;;
44452;SDS011;30155;52.164;21.236;2024-03-02T23:18:12;20.90;;;14.90;;
44452;SDS011;30155;52.164;21.236;2024-03-02T23:23:03;20.80;;;14.60;;
44452;SDS011;30155;52.164;21.236;2024-03-02T23:27:56;25.00;;;15.40;;
44452;SDS011;30155;52.164;21.236;2024-03-02T23:32:48;23.20;;;15.90;;
44452;SDS011;30155;52.164;21.236;2024-03-02T23:37:39;25.60;;;15.70;;
44452;SDS011;30155;52.164;21.236;2024-03-02T23:42:31;21.30;;;15.50;;
44452;SDS011;30155;52.164;21.236;2024-03-02T23:47:22;24.10;;;15.40;;
44452;SDS011;30155;52.164;21.236;2024-03-02T23:52:14;19.60;;;13.70;;
44452;SDS011;30155;52.164;21.236;2024-03-02T23:57:06;20.40;;;14.60;;
